»·PEaware :: SWA3886 L52-L88

SWA3886 :: L52-L88

FLIGHT INFORMATION

Flight Status: Arrived
Operator:
Southwest Airlines
More flights by this operator :: More flights under this callsign
Pilot: Mark O. (17442)
Aircraft: CESSNA 172 SKYHAWK
(C172)
More flights by this aircraft type
Origin: L52 Oceano Co
United States
Destination: L88 New Cuyama
United States
More flights between these airports :: More routes between these airports
Route:
File this flight plan on PilotEdge
Remarks:
Altitude:
(Current/Filed)
0ft
Speed:
(Current/Filed)
0kts
Departed: 07-Jan-18 06:40 AM
Arrived: 07-Jan-18 07:14 AM
Distance/Time
Traveled:
47nm/0:34
Distance/Time
To Go:
Arrived

Flight Plot

Page will automatically refresh every two minutes.


Map Options




Map Legend


Flown Route
Filed Route
Departure Airport
Arrival Airport
Navaid (VOR, NDB)
Fix

Horizontal Profiles

Position Reports

Time Latitude Longitude Heading Altitude Ground
Speed
07-Jan-18 06:30 35.102465 -120.622783 34 16ft 0kts
07-Jan-18 06:31 35.102465 -120.622783 34 16ft 0kts
07-Jan-18 06:32 35.102465 -120.622783 34 16ft 0kts
07-Jan-18 06:33 35.102465 -120.622783 34 16ft 0kts
07-Jan-18 06:34 35.102465 -120.622783 34 16ft 0kts
07-Jan-18 06:35 35.102465 -120.622783 34 16ft 0kts
07-Jan-18 06:36 35.102465 -120.622783 34 16ft 0kts
07-Jan-18 06:37 35.102465 -120.622783 34 16ft 0kts
07-Jan-18 06:38 35.102465 -120.622783 34 16ft 0kts
07-Jan-18 06:39 35.102465 -120.622783 34 16ft 0kts
07-Jan-18 06:40 35.102465 -120.622783 34 16ft 0kts
07-Jan-18 06:41 35.102465 -120.622783 34 16ft 0kts
07-Jan-18 06:42 35.102464 -120.622757 132 16ft 1kts
07-Jan-18 06:43 35.102757 -120.623235 301 16ft 10kts
07-Jan-18 06:44 35.101394 -120.621970 122 16ft 24kts
07-Jan-18 06:45 35.099669 -120.619223 31 17ft 0kts
07-Jan-18 06:46 35.100834 -120.620973 302 17ft 58kts
07-Jan-18 06:47 35.111089 -120.645108 298 809ft 96kts
07-Jan-18 06:48 35.126606 -120.644869 108 1701ft 104kts
07-Jan-18 06:49 35.112104 -120.617591 125 2756ft 98kts
07-Jan-18 06:50 35.098491 -120.588223 97 3599ft 99kts
07-Jan-18 06:51 35.099145 -120.553906 104 4368ft 103kts
07-Jan-18 06:52 35.090103 -120.520985 105 5107ft 105kts
07-Jan-18 06:53 35.079742 -120.485662 117 5473ft 116kts
07-Jan-18 06:54 35.069017 -120.448192 113 5653ft 121kts
07-Jan-18 06:55 35.060874 -120.409851 104 5988ft 117kts
07-Jan-18 06:56 35.056804 -120.374379 81 6719ft 93kts
07-Jan-18 06:57 35.055792 -120.339030 102 7032ft 115kts
07-Jan-18 06:58 35.044002 -120.306355 123 7481ft 111kts
07-Jan-18 06:59 35.032429 -120.270930 108 7399ft 117kts
07-Jan-18 07:00 35.024531 -120.232625 95 7098ft 124kts
07-Jan-18 07:01 35.019378 -120.191169 101 6889ft 109kts
07-Jan-18 07:02 35.017753 -120.153284 94 7206ft 118kts
07-Jan-18 07:03 35.017172 -120.114260 92 7519ft 118kts
07-Jan-18 07:04 35.015778 -120.078858 97 7781ft 117kts
07-Jan-18 07:05 35.008837 -120.037730 104 7741ft 127kts
07-Jan-18 07:06 35.000011 -119.996129 104 7718ft 127kts
07-Jan-18 07:07 34.991451 -119.969451 104 7461ft 144kts
07-Jan-18 07:08 34.984888 -119.922008 89 6712ft 138kts
07-Jan-18 07:09 34.976356 -119.876911 107 6027ft 140kts
07-Jan-18 07:10 34.959608 -119.831173 121 4838ft 147kts
07-Jan-18 07:11 34.947538 -119.803265 115 4331ft 150kts
07-Jan-18 07:12 34.926267 -119.767530 132 3982ft 117kts
07-Jan-18 07:13 34.905140 -119.740013 127 4236ft 101kts
07-Jan-18 07:14 34.887434 -119.711201 124 4431ft 107kts
07-Jan-18 07:15 34.878655 -119.678959 85 4705ft 101kts
07-Jan-18 07:16 34.893690 -119.651987 50 4237ft 108kts
07-Jan-18 07:17 34.915980 -119.638196 310 2834ft 109kts
07-Jan-18 07:18 34.930110 -119.658503 309 2556ft 91kts
07-Jan-18 07:19 34.933271 -119.665537 288 2524ft 82kts
07-Jan-18 07:20 34.940234 -119.686243 295 2174ft 0kts
07-Jan-18 07:21 34.941321 -119.688970 292 2162ft 12kts
07-Jan-18 07:22 34.942687 -119.690460 26 2156ft 0kts

Navigation Log

Ident Type
Flight plan parsing failed, navigation log unavailable